Rock Springs Sweetwater County Airport
KRKS : now visible

Airfield :











YOU CAN JOIN US ON...

 
LOGIN :

Register | Disclaimer

   EN    FR    IT 

 









Legend :    VFR   Marginal VFR   IFR   Intensive IFR   Very Intensive IFR
Visi :
Ceiling :
>= 8 km
>= 3000ft
5 to 8 km
1000 to 3000 ft
1500m to 5 km
500 to 1000 ft
800 to 1500m
200 to 500 ft
< 800m
< 200 ft
Symbols :   Thunderstorms  Fog  Heavy snow  Heavy precipitations  Wind > 20 kt






- Airport Elevation : 6764 ft
- IATA code : RKS


KRKS - Rock Springs Sweetwater County

CURRENT METAR :
  • 110154Z AUTO 24013KT 10SM CLR M04/M08 A3026 RMK AO2 SLP290 T10391078

EXPIRED METARs :
  • 110054Z AUTO 24008KT 10SM CLR M04/M07 A3025 RMK AO2 SLP288 T10391072
  • 102354Z AUTO 23011KT 10SM CLR M03/M07 A3024 RMK AO2 SLP284 T10331072 11028 21039 53010

TAF KRKS
Valid from the 11 at 00:00 until the 12 at 00:00 UTC


102337Z 1100/1124 25015KT P6SM SCT110 SCT200
FM110100 24010KT P6SM FEW110 SCT200
FM112000 26012G18KT P6SM SCT090 BKN150



MET'MAP, your aeronautical weather chart ! - Copyright ORBIFLY December 2007 - Disclaimer

ORBIFLY MET'MAP TEAM :

Programming & Development : Alexandra Zaïnal
Concept & original design : Baudouin d'Aumeries
Assistance for programming : Marc-Olivier Méhu
Technical & hardware support : Manuel Goepfert

Contact : metmap@orbifly.com




SOURCES & CREDITS :

   NOAA       Earth
Advisory